Time;durP1;ratioP1;P1;durP2;ratioP2;P2;SDS_P1;SDS_P2;PMS_P1;PMS_P2;Temp;Humidity;BMP_temperature;BMP_pressure;BME280_temperature;BME280_humidity;BME280_pressure;Samples;Min_cycle;Max_cycle;Signal;HPM_P1;HPM_P2
2023/05/07 00:02:11;;;;;;;8.70;6.17;;;;;;;16.07;63.00;96114.66;4998404;28;20207;-70
2023/05/07 00:04:38;;;;;;;10.27;6.17;;;;;;;15.96;63.43;96122.50;4995237;28;20410;-65
2023/05/07 00:07:04;;;;;;;7.10;5.97;;;;;;;16.01;63.85;96123.03;4993336;28;20283;-70
2023/05/07 00:09:29;;;;;;;6.00;5.40;;;;;;;16.05;63.47;96124.50;4998275;28;20565;-75
2023/05/07 00:11:55;;;;;;;7.27;6.57;;;;;;;15.96;63.61;96125.97;4992747;28;20317;-67
2023/05/07 00:14:20;;;;;;;6.87;5.50;;;;;;;15.99;63.24;96127.56;4997230;28;20181;-72
2023/05/07 00:16:46;;;;;;;11.47;6.00;;;;;;;15.92;63.72;96126.31;4993817;28;20176;-70
2023/05/07 00:19:11;;;;;;;9.60;5.60;;;;;;;15.87;63.34;96130.13;4996362;28;20174;-67
2023/05/07 00:21:37;;;;;;;6.87;5.63;;;;;;;15.90;63.78;96128.22;4999505;28;20615;-67
2023/05/07 00:24:03;;;;;;;6.40;5.80;;;;;;;15.89;63.98;96127.38;4996293;28;20180;-68
2023/05/07 00:26:28;;;;;;;6.37;5.70;;;;;;;15.78;64.17;96125.47;4995453;28;20276;-72
2023/05/07 00:28:54;;;;;;;6.07;5.47;;;;;;;15.82;64.41;96128.75;4996727;28;20226;-68
2023/05/07 00:31:19;;;;;;;8.83;6.43;;;;;;;15.78;64.36;96125.47;4993873;28;20205;-70
2023/05/07 00:33:44;;;;;;;11.90;5.80;;;;;;;15.59;64.49;96114.41;4997918;28;20238;-69
2023/05/07 00:36:10;;;;;;;6.67;5.73;;;;;;;15.64;64.68;96113.16;5002677;28;20208;-73
2023/05/07 00:38:35;;;;;;;13.10;6.10;;;;;;;15.60;64.83;96109.03;4999353;28;20192;-71
2023/05/07 00:41:02;;;;;;;7.77;5.70;;;;;;;15.56;64.86;96106.69;4996528;28;20203;-69
2023/05/07 00:43:27;;;;;;;5.53;4.90;;;;;;;15.52;65.39;96113.16;5000465;28;20190;-71
2023/05/07 00:45:53;;;;;;;6.60;5.37;;;;;;;15.52;64.82;96107.84;4996173;28;20435;-70
2023/05/07 00:48:19;;;;;;;6.93;5.83;;;;;;;15.50;64.99;96112.44;4994711;28;20268;-70
2023/05/07 00:50:45;;;;;;;5.67;5.13;;;;;;;15.48;64.94;96101.09;4989174;28;20204;-74
2023/05/07 00:53:11;;;;;;;7.30;5.83;;;;;;;15.49;64.88;96095.69;4989557;28;20215;-72
2023/05/07 00:55:37;;;;;;;8.40;6.30;;;;;;;15.45;64.82;96103.00;4997105;28;20442;-70
2023/05/07 00:58:03;;;;;;;8.00;6.50;;;;;;;15.39;64.74;96097.28;5001939;28;21226;-70
2023/05/07 01:00:28;;;;;;;7.80;5.67;;;;;;;15.36;64.78;96098.34;5006207;28;20496;-70
2023/05/07 01:02:54;;;;;;;6.80;6.00;;;;;;;15.29;65.11;96096.22;5007796;28;20203;-70
2023/05/07 01:05:22;;;;;;;10.23;5.27;;;;;;;15.31;65.07;96100.44;4999799;28;20173;-68
2023/05/07 01:07:49;;;;;;;5.63;4.90;;;;;;;15.27;64.96;96098.94;5003332;28;20896;-69
2023/05/07 01:10:15;;;;;;;15.63;6.47;;;;;;;15.29;64.89;96097.06;5004474;28;20874;-68
2023/05/07 01:12:42;;;;;;;8.43;5.17;;;;;;;15.30;64.33;96089.97;5006123;28;20600;-68
2023/05/07 01:15:08;;;;;;;6.10;5.10;;;;;;;15.25;63.99;96090.28;5004384;28;20571;-70
2023/05/07 01:17:39;;;;;;;5.77;5.00;;;;;;;15.15;64.03;96103.25;4996671;28;20436;-70
2023/05/07 01:20:07;;;;;;;7.07;6.23;;;;;;;15.24;63.50;96088.59;5007802;28;21093;-69
2023/05/07 01:22:34;;;;;;;6.53;5.90;;;;;;;15.25;63.13;96090.28;5000691;28;20454;-67
2023/05/07 01:25:01;;;;;;;6.50;5.90;;;;;;;15.26;63.12;96089.34;4998717;28;20471;-69
2023/05/07 01:27:27;;;;;;;10.03;6.70;;;;;;;15.29;63.16;96088.28;4999625;28;20817;-68
2023/05/07 01:29:53;;;;;;;6.80;6.20;;;;;;;15.22;63.01;96090.50;4998172;28;20461;-68
2023/05/07 01:32:27;;;;;;;6.83;6.13;;;;;;;15.18;63.49;96097.75;4997148;28;20478;-66
2023/05/07 01:34:54;;;;;;;17.37;6.67;;;;;;;15.23;63.17;96093.00;5004444;28;20181;-71
2023/05/07 01:37:20;;;;;;;9.80;6.67;;;;;;;15.19;63.35;96094.19;5003924;28;20800;-68
2023/05/07 01:39:47;;;;;;;7.03;6.33;;;;;;;15.13;63.70;96106.97;5004508;28;20442;-70
2023/05/07 01:42:13;;;;;;;12.00;6.33;;;;;;;15.18;63.49;96097.75;4997604;28;20454;-68
2023/05/07 01:44:39;;;;;;;8.53;5.73;;;;;;;15.15;63.89;96091.84;4997893;28;20933;-70
2023/05/07 01:47:06;;;;;;;9.00;6.40;;;;;;;15.24;63.08;96091.25;4998483;28;20176;-67
2023/05/07 01:49:31;;;;;;;9.50;6.33;;;;;;;15.17;63.37;96090.81;4999461;28;20732;-69
2023/05/07 01:51:58;;;;;;;7.27;6.57;;;;;;;15.16;63.25;96088.25;5002761;28;20542;-68
2023/05/07 01:54:30;;;;;;;10.47;6.53;;;;;;;15.09;63.62;96100.19;5003084;28;20173;-70
2023/05/07 01:56:58;;;;;;;7.90;6.83;;;;;;;15.10;63.49;96094.81;5005375;28;20504;-68
2023/05/07 01:59:23;;;;;;;8.73;5.90;;;;;;;15.02;64.42;96099.75;4999264;28;20430;-72
2023/05/07 02:01:49;;;;;;;7.63;6.23;;;;;;;14.96;64.36;96095.72;4998358;28;20459;-69
2023/05/07 02:04:14;;;;;;;9.20;6.57;;;;;;;15.04;63.91;96097.84;5003541;28;20578;-71
2023/05/07 02:06:40;;;;;;;6.80;6.10;;;;;;;15.10;63.64;96093.97;5002521;28;20710;-68
2023/05/07 02:09:05;;;;;;;11.30;6.37;;;;;;;14.97;64.06;96088.63;4999839;28;20230;-67
2023/05/07 02:11:31;;;;;;;7.13;6.17;;;;;;;14.95;64.16;96093.16;5001054;28;20235;-70
2023/05/07 02:13:56;;;;;;;8.80;6.53;;;;;;;15.10;63.62;96096.59;5004401;28;20188;-68
2023/05/07 02:16:22;;;;;;;17.60;7.07;;;;;;;15.12;63.38;96090.28;5001986;28;20248;-68
2023/05/07 02:18:48;;;;;;;14.63;7.07;;;;;;;15.18;63.20;96096.94;4998100;28;20180;-67
2023/05/07 02:21:14;;;;;;;9.30;6.70;;;;;;;15.19;63.31;96101.28;4996357;28;20464;-71
2023/05/07 02:23:39;;;;;;;6.33;5.73;;;;;;;15.12;63.60;96087.63;5002866;28;20263;-68
2023/05/07 02:26:05;;;;;;;6.63;6.03;;;;;;;15.08;63.48;96086.13;5003301;28;20189;-67
2023/05/07 02:28:30;;;;;;;8.23;5.83;;;;;;;14.98;63.91;96091.19;4990332;28;20271;-69
2023/05/07 02:30:58;;;;;;;6.10;5.50;;;;;;;14.95;63.62;96091.41;4998664;28;20212;-69
2023/05/07 02:33:23;;;;;;;7.57;6.17;;;;;;;14.95;63.85;96083.47;4998493;28;20254;-71
2023/05/07 02:35:49;;;;;;;8.83;7.03;;;;;;;14.84;64.20;96093.88;4994560;28;20439;-69
2023/05/07 02:38:14;;;;;;;8.33;5.73;;;;;;;14.90;63.98;96090.81;4991405;28;20184;-68
2023/05/07 02:40:40;;;;;;;12.73;6.73;;;;;;;14.82;64.15;96087.84;4991652;28;20205;-69
2023/05/07 02:43:05;;;;;;;15.77;6.30;;;;;;;14.79;64.26;96088.91;5006654;28;20187;-66
2023/05/07 02:45:32;;;;;;;7.93;5.77;;;;;;;14.80;63.93;96089.75;5002435;28;20181;-71
2023/05/07 02:47:58;;;;;;;8.67;5.93;;;;;;;14.79;64.05;96093.34;5005883;28;20641;-69
2023/05/07 02:50:23;;;;;;;6.37;5.50;;;;;;;14.72;64.21;96094.69;4996475;28;20477;-68
2023/05/07 02:52:49;;;;;;;6.47;5.87;;;;;;;14.71;64.45;96093.81;5004468;28;20603;-70
2023/05/07 02:55:14;;;;;;;11.03;5.63;;;;;;;14.65;64.49;96093.41;4989743;28;20189;-69
2023/05/07 02:57:40;;;;;;;7.43;5.97;;;;;;;14.64;64.98;96089.06;5000620;28;20268;-70
2023/05/07 03:00:17;;;;;;;7.60;5.40;;;;;;;14.57;65.20;96086.84;5007282;28;20180;-66
2023/05/07 03:02:43;;;;;;;7.53;5.83;;;;;;;14.44;65.69;96095.59;5003624;28;20207;-68
2023/05/07 03:05:09;;;;;;;20.80;6.80;;;;;;;14.51;65.00;96089.81;5004616;28;20549;-70
2023/05/07 03:07:35;;;;;;;9.43;5.93;;;;;;;14.34;65.79;96098.00;5001110;28;20525;-71
2023/05/07 03:10:01;;;;;;;12.63;6.70;;;;;;;14.48;65.05;96078.59;5007724;28;20889;-66
2023/05/07 03:12:26;;;;;;;16.80;6.37;;;;;;;14.49;64.78;96081.16;4999783;28;20482;-70
2023/05/07 03:14:52;;;;;;;7.70;6.03;;;;;;;14.35;64.70;96091.75;5000133;28;20184;-68
2023/05/07 03:17:17;;;;;;;9.03;6.40;;;;;;;14.47;64.54;96087.47;5004454;28;20672;-68
2023/05/07 03:19:43;;;;;;;8.87;6.30;;;;;;;14.36;64.21;96090.78;4996578;28;20176;-68
2023/05/07 03:22:08;;;;;;;12.20;6.60;;;;;;;14.48;64.14;96099.72;5002567;28;20234;-68
2023/05/07 03:24:34;;;;;;;10.40;6.40;;;;;;;14.38;64.50;96105.59;4992281;28;20733;-71
2023/05/07 03:27:00;;;;;;;10.40;5.77;;;;;;;14.42;64.65;96093.06;4997295;28;20177;-66
2023/05/07 03:29:26;;;;;;;8.00;5.50;;;;;;;14.29;65.18;96103.56;4995588;28;20207;-69
2023/05/07 03:31:52;;;;;;;11.43;6.77;;;;;;;14.37;64.89;96101.25;4993920;28;20456;-69
2023/05/07 03:34:21;;;;;;;11.10;6.00;;;;;;;14.30;64.95;96102.59;4992667;28;20235;-71
2023/05/07 03:36:50;;;;;;;8.90;6.43;;;;;;;14.20;65.02;96098.84;4994642;28;20184;-71
2023/05/07 03:39:15;;;;;;;9.03;5.90;;;;;;;14.07;65.67;96103.19;4991217;28;20516;-69
2023/05/07 03:41:41;;;;;;;7.30;5.63;;;;;;;14.13;65.07;96095.75;5000033;28;20542;-70
2023/05/07 03:44:06;;;;;;;9.77;5.50;;;;;;;14.02;65.60;96103.50;5001114;28;20629;-69
2023/05/07 03:46:32;;;;;;;18.20;7.97;;;;;;;14.04;65.80;96096.31;4995484;28;20177;-67
2023/05/07 03:48:58;;;;;;;9.77;6.70;;;;;;;14.07;65.42;96105.84;4997014;28;20188;-69
2023/05/07 03:51:24;;;;;;;9.90;6.60;;;;;;;13.82;66.41;96107.38;4995668;28;20467;-72
2023/05/07 03:53:52;;;;;;;9.37;6.47;;;;;;;13.92;66.05;96108.50;5006870;28;20656;-71
2023/05/07 03:56:18;;;;;;;10.67;6.03;;;;;;;13.94;66.45;96111.03;5000436;28;20181;-69
2023/05/07 03:58:44;;;;;;;14.27;6.30;;;;;;;13.98;66.17;96116.03;5003007;28;20446;-70
2023/05/07 04:01:09;;;;;;;17.93;6.80;;;;;;;14.05;65.56;96107.72;5001801;28;20298;-69
2023/05/07 04:03:35;;;;;;;8.33;6.27;;;;;;;14.11;65.19;96110.84;5004670;28;20173;-70
2023/05/07 04:06:00;;;;;;;11.67;6.30;;;;;;;14.11;65.51;96105.56;5002941;28;20184;-69
2023/05/07 04:08:25;;;;;;;33.60;8.80;;;;;;;14.12;65.22;96107.22;5005250;28;20211;-68
2023/05/07 04:10:58;;;;;;;6.40;5.80;;;;;;;14.06;65.75;96107.63;4997711;28;20211;-69
2023/05/07 04:13:24;;;;;;;9.17;5.80;;;;;;;14.11;65.70;96112.63;5008787;28;20242;-70
2023/05/07 04:15:50;;;;;;;6.77;5.67;;;;;;;14.14;64.93;96108.00;5010085;28;20437;-69
2023/05/07 04:18:16;;;;;;;14.10;6.57;;;;;;;14.15;64.97;96111.50;5003614;28;20441;-71
2023/05/07 04:20:41;;;;;;;10.53;6.93;;;;;;;14.14;65.21;96115.06;4999747;28;20459;-69
2023/05/07 04:23:07;;;;;;;9.23;6.10;;;;;;;14.10;65.06;96105.63;5003938;28;20266;-68
2023/05/07 04:25:33;;;;;;;6.80;6.20;;;;;;;14.28;64.94;96114.19;5005094;28;20537;-68
2023/05/07 04:27:58;;;;;;;8.17;6.87;;;;;;;14.25;65.20;96109.13;5009612;28;20184;-68
2023/05/07 04:30:24;;;;;;;25.90;7.13;;;;;;;14.32;64.24;96119.19;4995196;28;20208;-70
2023/05/07 04:32:49;;;;;;;49.47;9.93;;;;;;;14.42;64.35;96110.69;5006337;28;20205;-69
2023/05/07 04:35:15;;;;;;;14.60;7.13;;;;;;;14.28;64.40;96109.75;5009300;28;20230;-68
2023/05/07 04:37:40;;;;;;;9.90;6.13;;;;;;;14.26;64.61;96111.66;5001506;28;20188;-70
2023/05/07 04:40:07;;;;;;;26.60;7.03;;;;;;;14.29;64.37;96106.19;5007348;28;20185;-70
2023/05/07 04:42:32;;;;;;;12.10;6.03;;;;;;;14.29;64.72;96113.25;5005992;28;20200;-67
2023/05/07 04:44:58;;;;;;;9.00;5.97;;;;;;;14.48;64.25;96105.88;5000819;28;21073;-68
2023/05/07 04:47:23;;;;;;;14.13;6.57;;;;;;;14.46;64.38;96109.56;5004471;28;20623;-67
2023/05/07 04:49:48;;;;;;;11.90;6.67;;;;;;;14.65;63.71;96103.97;5004693;28;20231;-71
2023/05/07 04:52:15;;;;;;;11.40;6.90;;;;;;;14.86;62.88;96104.34;5008949;28;20827;-70
2023/05/07 04:54:40;;;;;;;9.03;6.60;;;;;;;15.30;61.57;96111.97;5005030;28;20269;-67
2023/05/07 04:57:06;;;;;;;9.77;6.80;;;;;;;15.63;60.66;96110.63;5000171;28;20526;-68
2023/05/07 04:59:32;;;;;;;12.83;6.83;;;;;;;16.17;58.56;96115.69;5002022;28;20267;-73
2023/05/07 05:01:58;;;;;;;7.63;5.87;;;;;;;16.38;57.35;96125.72;4997232;28;20215;-70
2023/05/07 05:04:23;;;;;;;7.70;6.90;;;;;;;16.60;56.63;96119.72;5008090;28;20435;-73
2023/05/07 05:06:49;;;;;;;8.63;6.67;;;;;;;16.81;55.96;96125.28;4998144;28;20557;-70
2023/05/07 05:09:15;;;;;;;16.97;6.70;;;;;;;16.80;56.29;96124.47;4993387;28;20772;-68
2023/05/07 05:11:41;;;;;;;13.00;5.87;;;;;;;17.35;54.38;96127.47;5000831;28;20196;-70
2023/05/07 05:14:06;;;;;;;9.83;6.00;;;;;;;17.37;54.84;96122.88;5000419;28;20446;-69
2023/05/07 05:16:32;;;;;;;7.87;5.60;;;;;;;17.24;54.58;96130.06;5005459;28;20630;-71
2023/05/07 05:18:58;;;;;;;7.40;6.00;;;;;;;17.37;54.44;96122.88;5003001;28;20315;-70
2023/05/07 05:21:23;;;;;;;7.30;6.60;;;;;;;17.43;54.43;96129.53;5005989;28;20453;-69
2023/05/07 05:23:49;;;;;;;6.70;6.10;;;;;;;17.66;53.48;96128.63;5007308;28;20187;-71
2023/05/07 05:26:14;;;;;;;8.97;6.80;;;;;;;17.64;53.45;96127.88;5005182;28;20181;-71
2023/05/07 05:28:39;;;;;;;6.93;6.00;;;;;;;17.76;53.39;96132.28;5002360;28;20180;-69
2023/05/07 05:31:05;;;;;;;6.97;6.37;;;;;;;17.49;54.39;96126.41;5004865;28;20203;-70
2023/05/07 05:33:30;;;;;;;15.07;6.93;;;;;;;17.23;54.96;96134.53;5007649;28;20254;-68
2023/05/07 05:35:56;;;;;;;16.53;7.13;;;;;;;17.75;53.62;96137.69;5006493;28;20179;-71
2023/05/07 05:38:21;;;;;;;10.63;6.67;;;;;;;18.13;52.75;96147.19;5007866;28;20185;-71
2023/05/07 05:40:47;;;;;;;8.73;6.40;;;;;;;17.97;52.34;96137.75;5007160;28;20242;-70
2023/05/07 05:43:13;;;;;;;7.23;6.20;;;;;;;18.18;52.26;96134.38;5006088;28;20180;-71
2023/05/07 05:45:39;;;;;;;7.37;6.70;;;;;;;18.06;52.21;96140.66;4994001;28;20181;-71
2023/05/07 05:48:04;;;;;;;8.67;6.33;;;;;;;17.84;53.16;96141.50;4999210;28;20485;-70
2023/05/07 05:50:30;;;;;;;6.90;6.30;;;;;;;17.40;54.04;96145.69;5005477;28;20208;-67
2023/05/07 05:52:56;;;;;;;11.13;6.23;;;;;;;17.98;52.81;96142.09;5002800;28;20187;-68
2023/05/07 05:55:21;;;;;;;9.07;6.00;;;;;;;18.07;52.40;96142.34;5001339;28;20180;-69
2023/05/07 05:57:47;;;;;;;9.77;6.03;;;;;;;18.11;52.57;96144.63;5003753;28;20431;-67
2023/05/07 06:00:13;;;;;;;14.00;7.10;;;;;;;18.12;52.95;96140.19;5007376;28;20573;-67
2023/05/07 06:02:39;;;;;;;7.13;6.43;;;;;;;18.42;52.06;96144.88;5007431;28;20207;-75
2023/05/07 06:05:05;;;;;;;8.17;7.37;;;;;;;18.23;52.17;96152.63;5008185;28;20173;-70
2023/05/07 06:07:30;;;;;;;8.83;7.37;;;;;;;18.12;52.41;96142.84;5007391;28;20259;-68
2023/05/07 06:09:56;;;;;;;7.13;6.43;;;;;;;17.85;53.00;96144.00;5007898;28;20549;-69
2023/05/07 06:12:21;;;;;;;10.70;6.47;;;;;;;18.34;51.68;96149.97;5004763;28;20200;-71
2023/05/07 06:14:47;;;;;;;6.67;6.10;;;;;;;18.26;51.68;96155.03;5005737;28;20190;-70
2023/05/07 06:17:12;;;;;;;7.10;6.20;;;;;;;17.73;53.25;96155.53;5006984;28;20172;-70
2023/05/07 06:19:38;;;;;;;11.77;7.00;;;;;;;18.00;52.97;96157.94;5008381;28;20303;-70
2023/05/07 06:22:03;;;;;;;7.37;6.23;;;;;;;18.18;52.24;96163.59;5000556;28;20204;-72
2023/05/07 06:24:29;;;;;;;8.27;7.37;;;;;;;18.02;52.59;96155.97;5008378;28;20259;-70
2023/05/07 06:26:55;;;;;;;8.20;6.80;;;;;;;18.66;51.30;96151.84;5007180;28;20195;-69
2023/05/07 06:29:20;;;;;;;6.50;6.00;;;;;;;18.58;51.75;96153.31;5007428;28;20198;-69
2023/05/07 06:31:46;;;;;;;7.73;7.03;;;;;;;18.24;52.44;96154.31;5005605;28;20259;-69
2023/05/07 06:34:14;;;;;;;6.97;6.37;;;;;;;18.59;51.85;96160.34;5002970;28;20208;-70
2023/05/07 06:36:40;;;;;;;10.13;7.60;;;;;;;19.13;50.04;96152.50;5003265;28;20254;-69
2023/05/07 06:39:06;;;;;;;8.37;7.23;;;;;;;19.19;50.20;96150.19;4993144;28;20443;-72
2023/05/07 06:41:31;;;;;;;8.60;7.70;;;;;;;19.39;49.64;96153.88;5005163;28;20478;-69
2023/05/07 06:43:57;;;;;;;8.93;8.13;;;;;;;19.01;49.81;96155.19;5005170;28;20258;-66
2023/05/07 06:46:22;;;;;;;10.30;7.67;;;;;;;19.45;49.37;96158.66;5005176;28;20257;-70
2023/05/07 06:48:47;;;;;;;9.57;8.00;;;;;;;19.47;49.46;96161.22;5000241;28;20181;-69
2023/05/07 06:51:13;;;;;;;8.80;8.00;;;;;;;19.21;50.04;96158.91;5005133;28;20199;-67
2023/05/07 06:53:38;;;;;;;8.90;8.00;;;;;;;19.39;50.09;96153.88;5005670;28;20526;-68
2023/05/07 06:56:04;;;;;;;9.80;7.77;;;;;;;18.97;51.02;96161.75;4999343;28;20260;-71
2023/05/07 06:58:30;;;;;;;9.40;8.33;;;;;;;19.30;50.71;96162.63;5003577;28;20180;-67
2023/05/07 07:00:55;;;;;;;9.27;8.00;;;;;;;19.93;49.30;96148.53;4994463;28;20616;-69
2023/05/07 07:03:20;;;;;;;9.03;8.13;;;;;;;19.98;48.55;96146.31;5000988;28;20180;-68
2023/05/07 07:05:46;;;;;;;8.10;7.40;;;;;;;19.86;48.92;96156.19;5004840;28;20238;-70
2023/05/07 07:08:11;;;;;;;11.90;8.07;;;;;;;19.49;50.12;96156.63;5004442;28;20270;-74
2023/05/07 07:10:37;;;;;;;8.80;7.60;;;;;;;19.93;49.31;96152.03;5005201;28;20199;-69
2023/05/07 07:13:02;;;;;;;8.83;7.23;;;;;;;20.81;47.33;96147.09;5002880;28;20610;-70
2023/05/07 07:15:28;;;;;;;9.40;7.10;;;;;;;21.13;46.43;96145.03;5002717;28;20618;-69
2023/05/07 07:17:53;;;;;;;9.67;7.80;;;;;;;20.77;47.20;96151.03;5003233;28;20195;-66
2023/05/07 07:20:18;;;;;;;16.80;9.00;;;;;;;20.28;48.87;96156.13;5003187;28;20176;-70
2023/05/07 07:22:44;;;;;;;8.60;7.87;;;;;;;19.39;51.00;96153.00;5000309;28;20200;-70
2023/05/07 07:25:10;;;;;;;10.93;8.43;;;;;;;19.98;49.73;96149.81;5001433;28;20676;-67
2023/05/07 07:27:36;;;;;;;19.03;9.33;;;;;;;19.81;50.37;96153.06;5004128;28;20188;-71
2023/05/07 07:30:02;;;;;;;20.20;8.87;;;;;;;20.12;49.62;96143.28;5008099;28;20479;-69
2023/05/07 07:32:27;;;;;;;22.67;9.67;;;;;;;19.99;50.09;96142.69;5006420;28;20204;-69
2023/05/07 07:34:53;;;;;;;8.60;7.70;;;;;;;19.97;49.42;96141.97;5000573;28;20184;-69
2023/05/07 07:37:18;;;;;;;8.73;7.70;;;;;;;20.25;49.28;96137.75;5006749;28;20683;-69
2023/05/07 07:39:44;;;;;;;8.53;7.73;;;;;;;20.76;48.27;96144.00;5001817;28;20176;-70
2023/05/07 07:42:09;;;;;;;9.50;7.60;;;;;;;20.19;50.02;96149.78;5007356;28;20669;-71
2023/05/07 07:44:34;;;;;;;27.30;9.60;;;;;;;20.54;48.77;96145.88;5008585;28;20653;-66
2023/05/07 07:47:00;;;;;;;8.00;7.20;;;;;;;20.10;49.56;96147.91;5007165;28;20245;-69
2023/05/07 07:49:26;;;;;;;8.93;8.13;;;;;;;19.96;50.65;96150.91;5006984;28;20180;-71
2023/05/07 07:51:52;;;;;;;10.47;7.87;;;;;;;20.25;50.11;96149.25;5007333;28;20208;-69
2023/05/07 07:54:17;;;;;;;8.47;7.77;;;;;;;20.68;49.47;96144.69;4994361;28;20423;-69
2023/05/07 07:56:43;;;;;;;8.93;8.13;;;;;;;20.54;48.83;96148.53;4997490;28;20187;-68
2023/05/07 07:59:08;;;;;;;9.20;8.40;;;;;;;20.82;48.52;96154.13;5003194;28;20180;-69
2023/05/07 08:01:33;;;;;;;10.00;8.03;;;;;;;20.86;48.27;96148.38;5004370;28;20204;-68
2023/05/07 08:03:59;;;;;;;8.80;7.90;;;;;;;20.65;49.04;96159.13;5004234;28;20194;-70
2023/05/07 08:06:27;;;;;;;9.00;7.80;;;;;;;20.58;49.34;96157.16;4999655;28;20537;-67
2023/05/07 08:08:53;;;;;;;12.80;7.70;;;;;;;20.25;50.46;96159.09;5002790;28;20180;-69
2023/05/07 08:11:18;;;;;;;15.00;9.37;;;;;;;20.91;48.49;96163.97;5000846;28;21042;-69
2023/05/07 08:13:45;;;;;;;15.57;8.57;;;;;;;;;;4996816;28;20670;-70
2023/05/07 08:16:11;;;;;;;11.20;7.40;;;;;;;20.82;49.21;96160.28;4993865;28;20215;-68
2023/05/07 08:18:36;;;;;;;9.80;8.23;;;;;;;20.55;49.21;96157.38;4999596;28;20807;-70
2023/05/07 08:21:24;;;;;;;9.13;8.23;;;;;;;20.20;50.25;96159.47;5013747;28;20256;-66
2023/05/07 08:23:52;;;;;;;11.27;8.93;;;;;;;20.60;49.94;96165.81;5022021;28;20272;-68
2023/05/07 08:26:32;;;;;;;7.83;7.03;;;;;;;20.41;50.77;96159.44;5023519;28;20431;-68
2023/05/07 08:29:25;;;;;;;9.13;8.33;;;;;;;20.71;49.88;96158.56;5018218;28;20630;-68
2023/05/07 08:32:17;;;;;;;12.10;8.20;;;;;;;21.10;49.38;96157.84;5026268;28;20546;-68
2023/05/07 08:34:48;;;;;;;10.23;8.50;;;;;;;21.04;49.81;96161.88;5016412;28;20435;-69
2023/05/07 08:37:32;;;;;;;10.07;9.00;;;;;;;21.36;48.54;96150.97;5020717;28;20446;-69
2023/05/07 08:40:01;;;;;;;8.60;7.70;;;;;;;21.22;49.37;96148.72;5027916;28;20430;-69
2023/05/07 08:42:31;;;;;;;11.10;8.90;;;;;;;20.56;51.05;96159.09;5014323;28;20458;-68
2023/05/07 08:44:59;;;;;;;9.50;8.60;;;;;;;21.27;49.47;96164.31;5031619;28;20431;-69
2023/05/07 08:47:44;;;;;;;9.23;8.33;;;;;;;21.22;49.21;96155.88;5031352;28;20428;-68
2023/05/07 08:50:52;;;;;;;10.70;9.10;;;;;;;20.85;50.31;96156.50;5033809;28;20474;-69
2023/05/07 08:53:42;;;;;;;10.30;9.27;;;;;;;21.07;50.07;96150.97;5030698;28;21096;-68
2023/05/07 08:56:46;;;;;;;10.70;8.30;;;;;;;21.44;49.51;96154.78;5031051;28;20437;-69
2023/05/07 08:59:34;;;;;;;10.63;8.57;;;;;;;21.83;48.67;96155.63;5032718;28;20496;-69
2023/05/07 09:02:00;;;;;;;13.13;8.77;;;;;;;22.28;47.14;96146.97;5025005;28;20443;-70
2023/05/07 09:04:25;;;;;;;10.80;9.60;;;;;;;21.88;47.91;96150.69;5020337;28;20406;-69
2023/05/07 09:06:51;;;;;;;9.00;8.10;;;;;;;21.73;48.62;96150.28;5019159;28;20610;-72
2023/05/07 09:09:19;;;;;;;15.40;8.33;;;;;;;22.10;48.25;96154.00;5020907;28;20184;-70
2023/05/07 09:11:45;;;;;;;11.00;9.30;;;;;;;22.21;47.83;96142.34;5027454;28;20235;-68
2023/05/07 09:14:11;;;;;;;9.70;8.83;;;;;;;22.01;48.50;96153.03;5024186;28;20442;-70
2023/05/07 09:16:38;;;;;;;9.77;8.80;;;;;;;21.49;50.14;96144.53;5021105;28;20196;-68
2023/05/07 09:19:04;;;;;;;19.03;8.00;;;;;;;21.73;50.72;96142.28;5027629;28;20192;-71
2023/05/07 09:21:29;;;;;;;12.00;9.67;;;;;;;21.73;49.25;96144.09;5013171;28;20447;-68
2023/05/07 09:23:55;;;;;;;12.40;8.17;;;;;;;22.30;46.62;96153.00;4998463;28;20180;-72
2023/05/07 09:26:22;;;;;;;9.60;8.33;;;;;;;22.50;47.23;96148.41;4986073;28;20181;-71
2023/05/07 09:28:48;;;;;;;11.30;8.70;;;;;;;22.42;47.50;96151.00;4989277;28;20172;-70
2023/05/07 09:31:13;;;;;;;23.80;10.90;;;;;;;22.55;46.74;96140.78;4990997;28;20486;-70
2023/05/07 09:33:39;;;;;;;9.30;8.50;;;;;;;22.45;47.49;96153.38;4991890;28;20279;-71
2023/05/07 09:36:07;;;;;;;15.83;8.70;;;;;;;23.24;46.72;96147.47;4991409;28;20173;-70
2023/05/07 09:38:33;;;;;;;8.03;7.33;;;;;;;22.87;46.76;96141.31;4991330;28;20492;-73
2023/05/07 09:41:03;;;;;;;7.13;6.40;;;;;;;22.88;45.60;96143.84;4990729;28;20726;-70
2023/05/07 09:43:33;;;;;;;7.93;7.17;;;;;;;23.04;45.64;96145.91;4990382;28;20491;-73
2023/05/07 09:46:00;;;;;;;10.33;8.40;;;;;;;23.38;44.78;96147.94;4990509;28;20400;-70
2023/05/07 09:48:26;;;;;;;9.67;8.67;;;;;;;22.92;46.18;96141.75;4990183;28;20917;-71
2023/05/07 09:50:58;;;;;;;10.27;8.20;;;;;;;22.92;46.55;96144.41;4988294;28;20460;-74
2023/05/07 09:53:24;;;;;;;9.20;8.30;;;;;;;23.06;46.43;96135.06;4984623;28;20460;-75
2023/05/07 09:55:51;;;;;;;11.00;9.90;;;;;;;22.27;47.32;96136.41;4987508;28;20830;-75
2023/05/07 09:58:18;;;;;;;12.93;9.33;;;;;;;22.90;46.82;96131.19;4986641;28;20447;-74
2023/05/07 10:00:45;;;;;;;8.83;7.93;;;;;;;23.25;45.02;96134.94;4981593;28;20436;-75
2023/05/07 10:03:12;;;;;;;8.13;7.43;;;;;;;22.68;45.53;96144.94;4986672;28;20527;-74
2023/05/07 10:05:39;;;;;;;6.87;6.27;;;;;;;22.80;45.63;96133.91;4985772;28;20454;-71
2023/05/07 10:08:05;;;;;;;7.30;6.60;;;;;;;22.81;45.20;96127.56;4983099;28;20543;-75
2023/05/07 10:10:32;;;;;;;11.03;7.50;;;;;;;22.87;45.33;96126.13;4985140;28;20463;-71
2023/05/07 10:12:58;;;;;;;11.57;8.80;;;;;;;23.10;44.98;96131.91;4986577;28;20825;-73
2023/05/07 10:15:25;;;;;;;10.10;9.20;;;;;;;23.08;44.66;96125.03;4986864;28;20423;-75
2023/05/07 10:17:53;;;;;;;8.00;7.20;;;;;;;22.82;44.86;96123.91;4985072;28;20416;-72
2023/05/07 10:20:18;;;;;;;18.53;7.90;;;;;;;22.81;44.19;96127.56;4987174;28;20423;-72
2023/05/07 10:22:48;;;;;;;9.93;8.00;;;;;;;23.16;44.80;96120.59;4986056;28;20443;-73
2023/05/07 10:25:25;;;;;;;8.53;7.73;;;;;;;22.75;44.20;96132.69;4986580;28;20165;-74
2023/05/07 10:27:54;;;;;;;8.13;7.37;;;;;;;22.76;45.20;96132.53;4986366;28;20408;-75
2023/05/07 10:30:32;;;;;;;9.07;8.27;;;;;;;22.57;45.15;96127.28;4986130;28;20454;-76
2023/05/07 10:33:05;;;;;;;9.90;7.30;;;;;;;22.73;44.16;96127.47;4986371;28;20412;-74
2023/05/07 10:35:37;;;;;;;7.83;6.30;;;;;;;22.87;44.38;96128.81;4986025;28;20976;-70
2023/05/07 10:38:04;;;;;;;7.83;6.50;;;;;;;22.86;44.24;96121.75;4985978;28;20462;-71
2023/05/07 10:40:31;;;;;;;7.20;6.60;;;;;;;22.66;44.79;96118.38;4985952;28;20910;-72
2023/05/07 10:43:00;;;;;;;10.70;7.00;;;;;;;22.36;45.57;96119.50;4986020;28;20423;-71
2023/05/07 10:45:26;;;;;;;7.77;6.53;;;;;;;22.48;45.68;96114.78;4985499;28;20442;-72
2023/05/07 10:48:12;;;;;;;6.63;6.03;;;;;;;22.46;45.15;96122.13;4985270;28;20837;-71
2023/05/07 10:50:40;;;;;;;7.90;6.00;;;;;;;22.67;44.21;96108.50;4985519;28;20451;-72
2023/05/07 10:53:17;;;;;;;9.50;6.30;;;;;;;22.64;45.10;96111.50;4986829;28;20420;-70
2023/05/07 10:55:47;;;;;;;6.93;6.23;;;;;;;22.46;45.06;96114.94;4985846;28;20503;-70
2023/05/07 10:58:22;;;;;;;6.50;5.67;;;;;;;22.65;44.74;96113.16;4985168;28;20425;-70
2023/05/07 11:00:51;;;;;;;7.60;5.40;;;;;;;23.10;43.64;96107.81;4985384;28;20471;-72
2023/05/07 11:03:17;;;;;;;10.47;7.70;;;;;;;22.58;45.57;96107.56;4983421;28;20412;-75
2023/05/07 11:05:42;;;;;;;13.93;8.30;;;;;;;22.86;45.47;96102.19;4985448;28;20935;-70
2023/05/07 11:08:09;;;;;;;8.33;7.53;;;;;;;22.96;45.76;96111.84;4985954;28;20193;-73
2023/05/07 11:10:58;;;;;;;8.90;8.10;;;;;;;22.86;46.30;96099.53;4985650;28;20227;-72
2023/05/07 11:13:45;;;;;;;14.03;7.27;;;;;;;22.84;46.35;96091.63;4985978;28;21232;-72
2023/05/07 11:16:19;;;;;;;6.90;6.40;;;;;;;22.82;45.56;96082.94;4985192;28;20417;-74
2023/05/07 11:18:49;;;;;;;7.77;6.97;;;;;;;22.79;44.79;96091.25;4985178;28;20967;-73
2023/05/07 11:21:37;;;;;;;8.10;6.87;;;;;;;22.76;46.13;96096.91;4985252;28;20431;-73
2023/05/07 11:24:05;;;;;;;7.37;6.70;;;;;;;22.76;46.21;96097.75;4985856;28;20927;-70
2023/05/07 11:26:43;;;;;;;8.10;6.20;;;;;;;22.62;44.69;96092.91;4987614;28;20408;-72
2023/05/07 11:29:20;;;;;;;7.20;6.50;;;;;;;22.41;45.48;96091.31;4987885;28;20416;-72
2023/05/07 11:31:50;;;;;;;8.60;7.80;;;;;;;22.46;46.14;96088.19;4987754;28;20502;-74
2023/05/07 11:34:21;;;;;;;8.73;7.57;;;;;;;22.23;46.29;96089.56;4987707;28;20923;-72